METAR Data
IDs: Format: Raw Decoded Include TAF

Data at: 0231 UTC 25 Jan 2020

PAGA 250228Z AUTO 27006KT 3/4SM HZ CLR M29/M32 A3012 RMK AO2 FZRANO
PAGA 250220Z AUTO 27006KT 1SM HZ VV002 M29/M32 A3013 RMK AO2 FZRANO
PAGA 250216Z AUTO 27006KT 1 3/4SM HZ CLR M29/M32 A3013 RMK AO2 VIS 3/4V5 FZRANO
PAGA 250156Z AUTO 27005KT 10SM CLR M29/M32 A3012 RMK AO2 SLP208 T12891317 FZRANO
PAGA 250056Z AUTO 26005KT 6SM HZ CLR M28/M31 A3012 RMK AO2 SLP206 T12781311 FZRANO
PAGA 242356Z AUTO 27005KT 3SM HZ CLR M27/M29 A3012 RMK AO2 SLP206 T12671294 11261 21300 58002 FZRANO
PAGA 242256Z AUTO 27006KT 4SM HZ CLR M27/M31 A3013 RMK AO2 SLP208 T12721306 FZRANO
PAGA 242254Z AUTO 26007KT 5SM HZ CLR M27/M31 A3013 RMK AO2 FZRANO
PAGA 242247Z AUTO 26006KT 2 1/2SM HZ CLR M27/M30 A3013 RMK AO2 FZRANO
PAGA 242156Z AUTO 29003KT 10SM CLR M27/M29 A3013 RMK AO2 SLP208 T12671294 FZRANO
PAGA 242056Z AUTO 28005KT 10SM CLR M28/M31 A3013 RMK AO2 SLP209 T12831306 53002 FZRANO
PAGA 241956Z AUTO 27005KT 10SM CLR M29/M33 A3012 RMK AO2 SLP207 T12941328 FZRANO
PAGA 241856Z AUTO 29004KT 10SM CLR M29/M31 A3013 RMK AO2 SLP208 T12891311 FZRANO
PAGA 241756Z AUTO 28007KT 10SM CLR M29/M31 A3012 RMK AO2 SLP207 T12891311 11239 21294 53001 FZRANO
PAGA 241656Z AUTO 28006KT 10SM CLR M29/M31 A3012 RMK AO2 SLP206 T12891311 FZRANO
PAGA 241556Z AUTO 28006KT 10SM CLR M28/M30 A3012 RMK AO2 SLP206 T12781300 FZRANO
PAGA 241456Z AUTO 27004KT 10SM CLR M28/M30 A3012 RMK AO2 SLP206 T12781300 52001 FZRANO
PAGA 241356Z AUTO 00000KT 10SM CLR M26/M28 A3012 RMK AO2 SLP205 T12561283 FZRANO
PAGA 241256Z AUTO 00000KT 10SM CLR M25/M27 A3012 RMK AO2 SLP205 T12501272 FZRANO
PAGA 241156Z AUTO 35004KT 10SM CLR M24/M26 A3012 RMK AO2 SLP205 T12391261 11194 21239 51004 FZRANO
PAGA 241104Z AUTO 35003KT 10SM SCT021 M22/M25 A3011 RMK AO2 FZRANO
PAGA 241056Z AUTO 32005KT 10SM BKN021 M22/M25 A3011 RMK AO2 SLP204 T12221250 FZRANO
PAGA 240956Z AUTO 33004KT 10SM OVC021 M21/M23 A3011 RMK AO2 SLP202 T12061233 FZRANO
PAGA 240856Z AUTO 00000KT 10SM OVC017 M20/M23 A3010 RMK AO2 SLP199 T12001228 411891222 53006 FZRANO
PAGA 240756Z AUTO 33005KT 10SM OVC019 M19/M23 A3009 RMK AO2 SLP194 T11941228 FZRANO
PAGA 240656Z AUTO 31004KT 10SM OVC023 M19/M22 A3008 RMK AO2 SLP193 T11941222 FZRANO
PAGA 240556Z AUTO 00000KT 10SM OVC025 M20/M22 A3008 RMK AO2 SLP193 60000 T12001222 11189 21200 51008 FZRANO
PAGA 240456Z AUTO 00000KT 10SM OVC025 M19/M22 A3008 RMK AO2 SLP191 T11941222 FZRANO
PAGA 240356Z AUTO 33003KT 10SM OVC025 M19/M22 A3007 RMK AO2 SLP189 T11941222 FZRANO
PAGA 240344Z AUTO 34004KT 10SM OVC028 M20/M22 A3007 RMK AO2 FZRANO
PAGA 240310Z AUTO 35003KT 10SM FEW023 BKN032 OVC060 M20/M22 A3006 RMK AO2 FZRANO
PAGA 240256Z AUTO 32003KT 10SM BKN023 OVC060 M20/M22 A3006 RMK AO2 SLP185 60000 T12001222 53005 FZRANO
PAGA 240156Z AUTO 00000KT 10SM OVC023 M19/M22 A3005 RMK AO2 SNE26 SLP182 P0000 T11891217 FZRANO
PAGA 240056Z AUTO 00000KT 9SM -SN OVC021 M19/M21 A3005 RMK AO2 SLP181 P0000 T11891211 FZRANO
PAGA 232356Z AUTO 27005KT 9SM -SN OVC021 M19/M22 A3004 RMK AO2 SLP179 P0000 60000 T11891217 11189 21206 53008 FZRANO
PAGA 232256Z AUTO 26004KT 9SM -SN OVC021 M19/M22 A3003 RMK AO2 SLP175 P0000 T11941222 FZRANO
PAGA 232156Z AUTO 00000KT 9SM -SN OVC021 M19/M22 A3003 RMK AO2 SNB10 SLP174 P0000 T11891217 FZRANO
PAGA 232056Z AUTO 00000KT 10SM OVC021 M19/M22 A3002 RMK AO2 SNE40 SLP172 P0000 60000 T11941222 53012 FZRANO
PAGA 231956Z AUTO 00000KT 9SM -SN OVC019 M20/M23 A3000 RMK AO2 SLP167 P0000 T12001228 FZRANO
PAGA 231856Z AUTO 00000KT 9SM -SN OVC025 M21/M23 A3000 RMK AO2 SLP165 P0000 T12061228 FZRANO
PAGA 231756Z AUTO 26003KT 9SM -SN BKN023 OVC048 M21/M23 A2998 RMK AO2 SLP160 P0000 60000 T12061233 11206 21211 53009 FZRANO
PAGA 231714Z AUTO 27003KT 9SM -SN FEW025 OVC048 M21/M23 A2998 RMK AO2 P0000 FZRANO
PAGA 231656Z AUTO 27003KT 9SM -SN BKN023 OVC046 M21/M23 A2997 RMK AO2 SLP155 P0000 T12061233 FZRANO
PAGA 231556Z AUTO 00000KT 9SM -SN OVC023 M21/M23 A2996 RMK AO2 SLP150 P0000 T12061233 FZRANO
PAGA 231524Z AUTO 00000KT 9SM -SN BKN025 OVC048 M21/M23 A2996 RMK AO2 P0000 FZRANO
PAGA 231456Z AUTO 00000KT 4SM -SN BR FEW025 OVC050 M21/M23 A2996 RMK AO2 SLP150 P0000 60000 T12111233 53009 FZRANO